createdAt,value
2023-03-17T00:01:56.182Z,50.15
2023-03-17T00:04:24.724Z,50.21
2023-03-17T00:06:53.274Z,50.23
2023-03-17T00:09:21.072Z,50.19
2023-03-17T00:11:49.213Z,50.20
2023-03-17T00:14:16.899Z,50.28
2023-03-17T00:16:48.874Z,50.44
2023-03-17T00:19:36.587Z,50.50
2023-03-17T00:22:06.350Z,50.43
2023-03-17T00:24:33.901Z,50.66
2023-03-17T00:27:01.231Z,50.67
2023-03-17T00:29:28.228Z,50.63
2023-03-17T00:31:57.792Z,50.63
2023-03-17T00:34:25.158Z,50.85
2023-03-17T00:36:52.204Z,50.77
2023-03-17T00:39:19.295Z,50.80
2023-03-17T00:44:13.880Z,50.77
2023-03-17T00:46:42.087Z,50.91
2023-03-17T00:49:23.880Z,50.89
2023-03-17T00:51:51.275Z,51.12
2023-03-17T00:54:20.023Z,51.09
2023-03-17T00:56:48.512Z,50.96
2023-03-17T00:59:41.352Z,51.21
2023-03-17T01:02:12.063Z,51.25
2023-03-17T01:04:39.964Z,51.31
2023-03-17T01:07:07.796Z,51.37
2023-03-17T01:09:35.207Z,51.26
2023-03-17T01:12:02.086Z,51.34
2023-03-17T01:14:29.466Z,51.45
2023-03-17T01:16:56.338Z,51.33
2023-03-17T01:19:23.212Z,51.46
2023-03-17T01:21:50.527Z,51.40
2023-03-17T01:24:17.312Z,51.54
2023-03-17T01:26:44.874Z,51.38
2023-03-17T01:29:12.304Z,51.54
2023-03-17T01:31:39.504Z,51.61
2023-03-17T01:34:06.538Z,51.70
2023-03-17T01:36:34.454Z,51.77
2023-03-17T01:39:01.728Z,51.93
2023-03-17T01:41:28.598Z,51.74
2023-03-17T01:43:55.436Z,52.03
2023-03-17T01:46:40.460Z,51.77
2023-03-17T01:49:15.959Z,51.63
2023-03-17T01:51:51.985Z,51.88
2023-03-17T01:54:24.890Z,51.96
2023-03-17T01:56:54.270Z,52.20
2023-03-17T01:59:28.856Z,51.84
2023-03-17T02:02:03.145Z,51.96
2023-03-17T02:04:30.621Z,51.97
2023-03-17T02:06:59.073Z,52.04
2023-03-17T02:09:27.817Z,52.22
2023-03-17T02:11:56.854Z,52.18
2023-03-17T02:14:23.971Z,52.03
2023-03-17T02:16:50.924Z,52.08
2023-03-17T02:19:17.841Z,52.04
2023-03-17T02:21:47.918Z,52.08
2023-03-17T02:24:26.797Z,52.40
2023-03-17T02:26:55.908Z,52.09
2023-03-17T02:29:24.132Z,52.40
2023-03-17T02:31:51.241Z,52.19
2023-03-17T02:34:18.540Z,52.17
2023-03-17T02:36:46.646Z,52.18
2023-03-17T02:39:13.792Z,52.37
2023-03-17T02:41:40.877Z,52.41
2023-03-17T02:44:08.142Z,52.24
2023-03-17T02:46:34.991Z,52.42
2023-03-17T02:49:02.597Z,52.23
2023-03-17T02:51:29.611Z,52.26
2023-03-17T02:53:56.471Z,52.43
2023-03-17T02:56:23.349Z,52.38
2023-03-17T02:58:50.232Z,52.24
2023-03-17T03:01:18.539Z,52.24
2023-03-17T03:03:45.385Z,52.34
2023-03-17T03:06:12.218Z,52.43
2023-03-17T03:08:39.092Z,52.62
2023-03-17T03:11:06.443Z,52.68
2023-03-17T03:13:33.340Z,52.44
2023-03-17T03:16:00.612Z,52.41
2023-03-17T03:18:27.563Z,52.42
2023-03-17T03:20:54.393Z,52.27
2023-03-17T03:23:21.295Z,52.38
2023-03-17T03:25:48.165Z,52.49
2023-03-17T03:28:15.095Z,52.47
2023-03-17T03:30:42.688Z,52.20
2023-03-17T03:33:11.687Z,52.46
2023-03-17T03:35:38.880Z,52.42
2023-03-17T03:38:06.598Z,52.52
2023-03-17T03:40:34.087Z,52.52
2023-03-17T03:43:07.497Z,52.42
2023-03-17T03:45:39.840Z,52.73
2023-03-17T03:48:07.126Z,52.35
2023-03-17T03:50:34.230Z,52.53
2023-03-17T03:53:01.109Z,52.58
2023-03-17T03:55:27.967Z,52.48
2023-03-17T03:57:54.924Z,52.64
2023-03-17T04:00:22.329Z,52.57
2023-03-17T04:02:49.263Z,52.71
2023-03-17T04:05:18.775Z,52.79
2023-03-17T04:07:46.776Z,52.53
2023-03-17T04:10:15.663Z,52.22
2023-03-17T04:12:43.498Z,52.50
2023-03-17T04:15:14.101Z,52.53
2023-03-17T04:17:41.420Z,52.50
2023-03-17T04:20:09.172Z,52.60
2023-03-17T04:22:36.326Z,52.64
2023-03-17T04:25:03.474Z,52.56
2023-03-17T04:27:30.278Z,52.62
2023-03-17T04:29:57.616Z,52.72
2023-03-17T04:32:27.066Z,52.66
2023-03-17T04:34:54.140Z,52.62
2023-03-17T04:37:21.077Z,52.62
2023-03-17T04:39:47.904Z,52.66
2023-03-17T04:42:14.911Z,52.77
2023-03-17T04:44:43.199Z,52.91
2023-03-17T04:47:10.164Z,52.86
2023-03-17T04:49:37.151Z,52.87
2023-03-17T04:52:04.150Z,52.98
2023-03-17T04:54:31.089Z,52.66
2023-03-17T04:56:58.188Z,52.93
2023-03-17T04:59:25.076Z,53.01
2023-03-17T05:01:51.890Z,52.85
2023-03-17T05:04:30.787Z,52.86
2023-03-17T05:06:58.982Z,52.74
2023-03-17T05:09:27.511Z,52.77
2023-03-17T05:11:54.831Z,52.70
2023-03-17T05:14:21.652Z,52.49
2023-03-17T05:16:49.668Z,52.74
2023-03-17T05:19:17.796Z,52.85
2023-03-17T05:21:44.926Z,52.97
2023-03-17T05:24:11.938Z,52.81
2023-03-17T05:26:39.562Z,52.66
2023-03-17T05:29:06.390Z,52.92
2023-03-17T05:31:33.271Z,52.80
2023-03-17T05:34:00.646Z,53.03
2023-03-17T05:36:27.533Z,53.09
2023-03-17T05:38:54.670Z,52.83
2023-03-17T05:41:21.944Z,52.87
2023-03-17T05:43:48.784Z,52.69
2023-03-17T05:46:16.124Z,53.12
2023-03-17T05:48:43.598Z,52.79
2023-03-17T05:51:10.830Z,52.77
2023-03-17T05:53:37.731Z,52.79
2023-03-17T05:56:04.726Z,52.99
2023-03-17T05:58:31.817Z,53.19
2023-03-17T06:00:58.820Z,52.87
2023-03-17T06:03:25.799Z,52.82
2023-03-17T06:05:52.769Z,53.03
2023-03-17T06:08:19.828Z,53.05
2023-03-17T06:10:48.092Z,53.09
2023-03-17T06:13:15.724Z,53.32
2023-03-17T06:15:43.474Z,53.41
2023-03-17T06:18:10.408Z,52.85
2023-03-17T06:20:37.456Z,52.83
2023-03-17T06:23:05.843Z,53.16
2023-03-17T06:25:36.351Z,52.89
2023-03-17T06:28:05.833Z,52.77
2023-03-17T06:30:34.693Z,52.72
2023-03-17T06:33:03.060Z,52.74
2023-03-17T06:35:31.409Z,52.78
2023-03-17T06:37:58.579Z,52.79
2023-03-17T06:40:25.443Z,52.56
2023-03-17T06:42:52.561Z,52.67
2023-03-17T06:45:19.414Z,52.86
2023-03-17T06:47:46.620Z,53.63
2023-03-17T06:50:13.674Z,53.34
2023-03-17T06:52:41.167Z,53.18
2023-03-17T06:55:09.083Z,53.19
2023-03-17T06:57:36.751Z,53.15
2023-03-17T07:00:08.953Z,52.66
2023-03-17T07:02:36.233Z,53.23
2023-03-17T07:05:04.802Z,53.40
2023-03-17T07:07:31.873Z,53.56
2023-03-17T07:09:58.950Z,53.62
2023-03-17T07:12:26.361Z,53.60
2023-03-17T07:14:53.361Z,53.73
2023-03-17T07:17:20.607Z,53.56
2023-03-17T07:19:47.537Z,53.34
2023-03-17T07:22:14.760Z,53.24
2023-03-17T07:24:47.838Z,53.35
2023-03-17T07:27:15.905Z,53.25
2023-03-17T07:29:43.041Z,52.78
2023-03-17T07:32:10.659Z,53.39
2023-03-17T07:34:38.083Z,53.56
2023-03-17T07:37:07.201Z,53.67
2023-03-17T07:39:34.330Z,54.12
2023-03-17T07:42:01.231Z,54.27
2023-03-17T07:44:29.122Z,54.20
2023-03-17T07:46:56.864Z,54.38
2023-03-17T07:49:40.068Z,54.46
2023-03-17T07:52:09.705Z,54.34
2023-03-17T07:54:37.953Z,54.22
2023-03-17T07:57:07.954Z,54.23
2023-03-17T07:59:34.959Z,54.44
2023-03-17T08:02:02.259Z,54.39
2023-03-17T08:04:29.495Z,54.19
2023-03-17T08:06:57.639Z,54.29
2023-03-17T08:09:24.992Z,54.24
2023-03-17T08:11:52.030Z,54.29
2023-03-17T08:14:19.504Z,53.90
2023-03-17T08:16:46.603Z,54.06
2023-03-17T08:19:13.678Z,54.15
2023-03-17T08:21:40.631Z,54.25
2023-03-17T08:24:07.791Z,54.21
2023-03-17T08:26:34.807Z,54.32
2023-03-17T08:29:01.848Z,54.23
2023-03-17T08:31:29.118Z,54.07
2023-03-17T08:33:57.492Z,53.79
2023-03-17T08:36:25.040Z,53.64
2023-03-17T08:38:52.852Z,53.63
2023-03-17T08:41:23.036Z,53.97
2023-03-17T08:43:51.955Z,54.07
2023-03-17T08:46:32.493Z,54.06
2023-03-17T08:49:00.262Z,53.90
2023-03-17T08:51:29.517Z,54.17
2023-03-17T08:53:59.023Z,54.13
2023-03-17T08:56:27.334Z,54.08
2023-03-17T08:58:54.786Z,53.89
2023-03-17T09:01:23.567Z,53.92
2023-03-17T09:03:53.861Z,53.77
2023-03-17T09:06:21.740Z,53.91
2023-03-17T09:08:55.634Z,54.01
2023-03-17T09:11:29.138Z,54.21
2023-03-17T09:13:56.830Z,54.42
2023-03-17T09:16:24.375Z,54.46
2023-03-17T09:18:51.882Z,54.19
2023-03-17T09:21:18.924Z,53.94
2023-03-17T09:23:47.123Z,53.84
2023-03-17T09:26:14.179Z,53.88
2023-03-17T09:28:41.373Z,53.63
2023-03-17T09:31:11.958Z,53.53
2023-03-17T09:33:41.094Z,53.56
2023-03-17T09:36:09.857Z,53.43
2023-03-17T09:38:37.684Z,53.47
2023-03-17T09:41:18.761Z,53.39
2023-03-17T09:43:55.097Z,53.27
2023-03-17T09:46:36.522Z,53.18
2023-03-17T09:49:14.974Z,53.42
2023-03-17T09:51:45.450Z,53.55
2023-03-17T09:54:15.805Z,53.58
2023-03-17T09:56:48.513Z,53.53
2023-03-17T09:59:48.788Z,53.41
2023-03-17T10:02:29.633Z,53.45
2023-03-17T10:04:57.792Z,53.17
2023-03-17T10:07:42.582Z,53.22
2023-03-17T10:10:20.162Z,53.20
2023-03-17T10:12:54.750Z,53.27
2023-03-17T10:15:32.812Z,53.04
2023-03-17T10:18:00.284Z,53.26
2023-03-17T10:20:36.952Z,53.16
2023-03-17T10:23:12.187Z,53.25
2023-03-17T10:25:39.800Z,53.17
2023-03-17T10:28:26.508Z,53.18
2023-03-17T10:30:54.440Z,53.01
2023-03-17T10:33:23.118Z,53.02
2023-03-17T10:35:50.648Z,52.99
2023-03-17T10:38:25.246Z,52.95
2023-03-17T10:41:02.932Z,53.04
2023-03-17T10:43:36.779Z,53.08
2023-03-17T10:46:06.777Z,53.12
2023-03-17T10:48:39.240Z,52.88
2023-03-17T10:51:09.748Z,52.99
2023-03-17T10:53:44.115Z,53.29
2023-03-17T10:56:22.491Z,53.72
2023-03-17T10:58:52.264Z,54.04
2023-03-17T11:01:30.792Z,54.15
2023-03-17T11:03:58.373Z,54.81
2023-03-17T11:06:42.338Z,55.03
2023-03-17T11:09:17.181Z,55.19
2023-03-17T11:11:49.134Z,55.35
2023-03-17T11:14:19.713Z,55.18
2023-03-17T11:16:59.515Z,55.12
2023-03-17T11:19:56.055Z,55.24
2023-03-17T11:22:29.775Z,55.41
2023-03-17T11:25:09.796Z,55.41
2023-03-17T11:27:47.388Z,55.18
2023-03-17T11:30:42.240Z,55.35
2023-03-17T11:33:16.994Z,55.34
2023-03-17T11:35:59.350Z,55.23
2023-03-17T11:38:43.861Z,55.10
2023-03-17T11:41:21.062Z,55.27
2023-03-17T11:44:03.369Z,55.15
2023-03-17T11:46:52.030Z,55.30
2023-03-17T11:49:22.607Z,55.43
2023-03-17T11:52:03.537Z,55.53
2023-03-17T11:54:57.555Z,55.33
2023-03-17T11:57:32.528Z,55.23
2023-03-17T12:00:05.707Z,55.48
2023-03-17T12:02:41.803Z,55.49
2023-03-17T12:05:11.040Z,55.49
2023-03-17T12:07:48.553Z,55.50
2023-03-17T12:10:26.671Z,55.53
2023-03-17T12:12:59.272Z,55.53
2023-03-17T12:15:36.648Z,55.25
2023-03-17T12:18:13.537Z,55.55
2023-03-17T12:21:09.911Z,55.36
2023-03-17T12:23:48.606Z,55.61
2023-03-17T12:26:20.590Z,55.51
2023-03-17T12:29:00.461Z,55.70
2023-03-17T12:31:36.709Z,55.69
2023-03-17T12:34:07.255Z,55.55
2023-03-17T12:36:37.223Z,55.52
2023-03-17T12:39:16.525Z,55.49
2023-03-17T12:42:14.595Z,55.42
2023-03-17T12:45:20.966Z,55.47
2023-03-17T12:48:10.979Z,55.71
2023-03-17T12:50:50.387Z,55.71
2023-03-17T12:53:33.448Z,55.66
2023-03-17T12:56:10.787Z,55.54
2023-03-17T12:58:47.650Z,55.65
2023-03-17T13:01:24.590Z,55.78
2023-03-17T13:04:18.537Z,55.62
2023-03-17T13:06:55.392Z,55.76
2023-03-17T13:09:32.804Z,56.27
2023-03-17T13:12:02.275Z,56.35
2023-03-17T13:14:47.512Z,56.39
2023-03-17T13:17:17.872Z,56.46
2023-03-17T13:20:00.178Z,56.58
2023-03-17T13:22:41.345Z,56.87
2023-03-17T13:25:33.836Z,57.24
2023-03-17T13:28:13.200Z,57.20
2023-03-17T13:30:40.999Z,57.42
2023-03-17T13:33:16.500Z,57.22
2023-03-17T13:36:07.316Z,57.50
2023-03-17T13:38:40.183Z,57.42
2023-03-17T13:41:42.368Z,57.04
2023-03-17T13:44:39.703Z,57.36
2023-03-17T13:47:25.729Z,57.32
2023-03-17T13:49:58.651Z,57.19
2023-03-17T13:52:33.646Z,57.09
2023-03-17T13:55:18.768Z,57.57
2023-03-17T13:58:14.958Z,57.71
2023-03-17T14:00:49.241Z,57.90
2023-03-17T14:03:23.497Z,57.55
2023-03-17T14:05:51.999Z,57.52
2023-03-17T14:08:32.661Z,56.74
2023-03-17T14:11:03.120Z,57.37
2023-03-17T14:13:32.498Z,57.32
2023-03-17T14:16:20.188Z,57.34
2023-03-17T14:18:50.819Z,57.25
2023-03-17T14:21:24.468Z,57.41
2023-03-17T14:23:59.749Z,57.10
2023-03-17T14:26:29.848Z,57.17
2023-03-17T14:29:01.295Z,57.12
2023-03-17T14:31:29.564Z,57.08
2023-03-17T14:33:58.891Z,56.90
2023-03-17T14:36:27.950Z,57.15
2023-03-17T14:38:56.967Z,57.17
2023-03-17T14:41:31.230Z,56.97
2023-03-17T14:44:00.601Z,56.86
2023-03-17T14:46:38.998Z,56.82
2023-03-17T14:49:21.722Z,56.49
2023-03-17T14:51:57.063Z,56.49
2023-03-17T14:54:31.879Z,57.03
2023-03-17T14:57:14.599Z,56.67
2023-03-17T14:59:43.950Z,56.60
2023-03-17T15:02:38.257Z,56.44
2023-03-17T15:05:17.518Z,56.82
2023-03-17T15:07:44.552Z,56.49
2023-03-17T15:10:17.336Z,56.45
2023-03-17T15:12:49.378Z,57.57
2023-03-17T15:15:31.627Z,57.23
2023-03-17T15:18:01.807Z,57.48
2023-03-17T15:20:31.934Z,58.30
2023-03-17T15:23:05.734Z,57.95
2023-03-17T15:25:42.826Z,57.62
2023-03-17T15:28:15.775Z,58.92
2023-03-17T15:30:48.849Z,58.05
2023-03-17T15:33:24.598Z,58.05
2023-03-17T15:35:51.942Z,58.54
2023-03-17T15:38:19.153Z,58.99
2023-03-17T15:40:52.673Z,58.06
2023-03-17T15:43:23.744Z,58.38
2023-03-17T15:45:57.185Z,57.62
2023-03-17T15:48:28.295Z,58.67
2023-03-17T15:50:55.859Z,58.13
2023-03-17T15:53:23.188Z,58.21
2023-03-17T15:55:50.460Z,58.54
2023-03-17T15:58:17.685Z,58.46
2023-03-17T16:00:57.716Z,58.82
2023-03-17T16:03:32.685Z,58.78
2023-03-17T16:06:00.892Z,58.50
2023-03-17T16:08:28.048Z,58.54
2023-03-17T16:10:55.195Z,58.63
2023-03-17T16:13:22.800Z,58.55
2023-03-17T16:15:58.942Z,58.37
2023-03-17T16:18:34.388Z,57.92
2023-03-17T16:21:02.734Z,58.47
2023-03-17T16:23:33.111Z,58.27
2023-03-17T16:26:14.143Z,57.94
2023-03-17T16:28:43.526Z,58.30
2023-03-17T16:31:24.867Z,58.54
2023-03-17T16:33:54.270Z,58.15
2023-03-17T16:36:23.370Z,58.44
2023-03-17T16:38:51.311Z,58.29
2023-03-17T16:41:24.430Z,58.72
2023-03-17T16:44:00.358Z,58.74
2023-03-17T16:46:34.412Z,58.47
2023-03-17T16:49:02.304Z,58.19
2023-03-17T16:51:29.309Z,57.72
2023-03-17T16:53:56.450Z,58.00
2023-03-17T16:56:25.420Z,57.76
2023-03-17T16:58:52.528Z,58.43
2023-03-17T17:01:25.628Z,58.11
2023-03-17T17:03:52.653Z,57.84
2023-03-17T17:06:21.310Z,57.93
2023-03-17T17:08:49.909Z,57.70
2023-03-17T17:11:18.170Z,57.50
2023-03-17T17:13:47.180Z,57.07
2023-03-17T17:16:17.512Z,56.71
2023-03-17T17:18:44.556Z,56.74
2023-03-17T17:21:11.693Z,56.74
2023-03-17T17:23:39.160Z,56.40
2023-03-17T17:26:06.312Z,55.93
2023-03-17T17:28:33.606Z,55.85
2023-03-17T17:31:00.661Z,55.56
2023-03-17T17:33:28.237Z,55.51
2023-03-17T17:35:55.837Z,55.22
2023-03-17T17:38:29.078Z,55.26
2023-03-17T17:40:58.638Z,55.08
2023-03-17T17:43:26.076Z,54.89
2023-03-17T17:45:55.649Z,54.55
2023-03-17T17:48:26.043Z,54.65
2023-03-17T17:50:54.539Z,54.45
2023-03-17T17:53:21.798Z,54.23
2023-03-17T17:55:50.058Z,54.27
2023-03-17T17:58:19.709Z,54.05
2023-03-17T18:00:47.190Z,53.86
2023-03-17T18:03:14.393Z,53.85
2023-03-17T18:05:41.874Z,53.36
2023-03-17T18:08:09.458Z,53.44
2023-03-17T18:10:36.587Z,53.29
2023-03-17T18:13:03.507Z,53.64
2023-03-17T18:15:30.444Z,54.21
2023-03-17T18:17:57.626Z,53.76
2023-03-17T18:20:26.066Z,53.37
2023-03-17T18:22:53.338Z,53.33
2023-03-17T18:25:20.896Z,52.78
2023-03-17T18:27:48.297Z,52.93
2023-03-17T18:30:23.582Z,52.86
2023-03-17T18:32:55.228Z,52.69
2023-03-17T18:35:23.812Z,52.84
2023-03-17T18:37:52.084Z,52.57
2023-03-17T18:40:20.114Z,52.83
2023-03-17T18:42:47.991Z,52.39
2023-03-17T18:45:15.612Z,52.36
2023-03-17T18:47:42.952Z,52.36
2023-03-17T18:50:12.884Z,52.25
2023-03-17T18:52:41.972Z,51.99
2023-03-17T18:55:11.594Z,51.84
2023-03-17T18:57:38.755Z,52.24
2023-03-17T19:00:09.031Z,52.08
2023-03-17T19:02:36.261Z,51.59
2023-03-17T19:05:03.787Z,51.93
2023-03-17T19:07:30.938Z,51.54
2023-03-17T19:09:58.201Z,51.78
2023-03-17T19:12:25.746Z,51.88
2023-03-17T19:14:53.464Z,51.56
2023-03-17T19:17:20.536Z,51.58
2023-03-17T19:19:47.656Z,51.52
2023-03-17T19:22:14.692Z,51.78
2023-03-17T19:24:42.282Z,51.96
2023-03-17T19:27:09.625Z,51.75
2023-03-17T19:29:37.010Z,51.52
2023-03-17T19:32:04.527Z,51.40
2023-03-17T19:34:32.093Z,51.22
2023-03-17T19:37:03.546Z,51.02
2023-03-17T19:39:31.876Z,51.12
2023-03-17T19:42:02.689Z,51.49
2023-03-17T19:44:30.138Z,51.34
2023-03-17T19:46:57.760Z,51.65
2023-03-17T19:49:26.185Z,51.66
2023-03-17T19:51:53.835Z,51.66
2023-03-17T19:54:23.582Z,51.64
2023-03-17T19:56:50.856Z,51.42
2023-03-17T19:59:20.275Z,51.47
2023-03-17T20:01:49.089Z,51.54
2023-03-17T20:04:21.334Z,51.29
2023-03-17T20:06:48.758Z,51.28
2023-03-17T20:09:17.345Z,51.75
2023-03-17T20:11:44.592Z,51.24
2023-03-17T20:14:11.832Z,51.08
2023-03-17T20:16:41.307Z,50.85
2023-03-17T20:19:09.064Z,50.67
2023-03-17T20:21:37.742Z,50.92
2023-03-17T20:24:05.828Z,50.76
2023-03-17T20:26:36.591Z,50.97
2023-03-17T20:29:03.925Z,50.74
2023-03-17T20:31:32.607Z,50.80
2023-03-17T20:34:00.409Z,50.41
2023-03-17T20:36:27.952Z,50.31
2023-03-17T20:38:55.375Z,50.40
2023-03-17T20:41:22.899Z,50.68
2023-03-17T20:43:51.348Z,50.30
2023-03-17T20:46:21.885Z,50.41
2023-03-17T20:48:49.600Z,50.28
2023-03-17T20:51:21.049Z,50.01
2023-03-17T20:53:51.681Z,50.26
2023-03-17T20:56:22.689Z,50.23
2023-03-17T20:58:51.221Z,50.35
2023-03-17T21:01:21.613Z,50.11
2023-03-17T21:03:49.033Z,49.94
2023-03-17T21:06:17.221Z,49.96
2023-03-17T21:08:46.697Z,50.33
2023-03-17T21:11:19.529Z,50.46
2023-03-17T21:13:50.134Z,50.39
2023-03-17T21:16:20.382Z,50.47
2023-03-17T21:18:48.693Z,50.39
2023-03-17T21:21:17.811Z,50.82
2023-03-17T21:23:45.353Z,50.64
2023-03-17T21:26:16.261Z,50.05
2023-03-17T21:28:44.140Z,49.88
2023-03-17T21:31:13.888Z,49.87
2023-03-17T21:33:42.675Z,49.73
2023-03-17T21:36:10.274Z,49.46
2023-03-17T21:38:38.113Z,49.52
2023-03-17T21:41:24.199Z,49.20
2023-03-17T21:43:51.365Z,49.13
2023-03-17T21:46:18.701Z,49.08
2023-03-17T21:48:48.791Z,48.88
2023-03-17T21:51:17.182Z,48.91
2023-03-17T21:53:46.441Z,48.87
2023-03-17T21:56:15.567Z,48.77
2023-03-17T21:58:43.393Z,48.96
2023-03-17T22:01:17.078Z,48.87
2023-03-17T22:03:45.691Z,49.25
2023-03-17T22:06:16.109Z,48.71
2023-03-17T22:08:44.863Z,48.92
2023-03-17T22:11:17.630Z,49.28
2023-03-17T22:13:46.016Z,49.12
2023-03-17T22:16:15.025Z,49.11
2023-03-17T22:18:42.526Z,49.46
2023-03-17T22:21:12.942Z,49.38
2023-03-17T22:23:42.589Z,49.38
2023-03-17T22:26:13.731Z,49.44
2023-03-17T22:28:41.373Z,49.51
2023-03-17T22:31:17.621Z,49.47
2023-03-17T22:33:45.973Z,49.55
2023-03-17T22:36:13.361Z,49.66
2023-03-17T22:38:41.095Z,49.87
2023-03-17T22:41:12.494Z,49.81
2023-03-17T22:43:40.622Z,49.88
2023-03-17T22:46:10.293Z,49.67
2023-03-17T22:48:37.630Z,49.85
2023-03-17T22:51:11.590Z,49.69
2023-03-17T22:53:39.873Z,50.10
2023-03-17T22:56:08.387Z,50.11
2023-03-17T22:58:36.132Z,50.23
2023-03-17T23:01:04.169Z,50.13
2023-03-17T23:03:32.263Z,50.27
2023-03-17T23:06:00.852Z,50.27
2023-03-17T23:08:29.960Z,50.20
2023-03-17T23:11:00.503Z,50.32
2023-03-17T23:13:29.002Z,50.48
2023-03-17T23:15:56.876Z,50.43
2023-03-17T23:18:24.322Z,50.40
2023-03-17T23:20:52.476Z,50.54
2023-03-17T23:23:20.368Z,50.53
2023-03-17T23:25:47.835Z,50.70
2023-03-17T23:28:15.953Z,50.84
2023-03-17T23:30:46.165Z,51.06
2023-03-17T23:33:14.669Z,50.81
2023-03-17T23:35:41.680Z,50.88
2023-03-17T23:38:09.124Z,51.11
2023-03-17T23:40:36.404Z,50.90
2023-03-17T23:43:05.730Z,51.08
2023-03-17T23:45:34.180Z,51.07
2023-03-17T23:48:01.381Z,51.12
2023-03-17T23:50:28.278Z,51.13
2023-03-17T23:52:55.249Z,51.16
2023-03-17T23:55:22.209Z,51.31
2023-03-17T23:57:50.201Z,51.13
